sensor_id;sensor_type;location;lat;lon;timestamp;temperature;humidity
74488;DHT22;63019;51.080;13.642;2023-12-22T00:00:53;5.10;99.90
74488;DHT22;63019;51.080;13.642;2023-12-22T00:01:55;5.10;99.90
74488;DHT22;63019;51.080;13.642;2023-12-22T00:02:57;5.10;99.90
74488;DHT22;63019;51.080;13.642;2023-12-22T00:03:59;5.10;99.90
74488;DHT22;63019;51.080;13.642;2023-12-22T00:05:01;5.10;99.90
74488;DHT22;63019;51.080;13.642;2023-12-22T00:06:04;5.10;99.90
74488;DHT22;63019;51.080;13.642;2023-12-22T00:07:06;5.10;99.90
74488;DHT22;63019;51.080;13.642;2023-12-22T00:08:08;5.10;99.90
74488;DHT22;63019;51.080;13.642;2023-12-22T00:09:10;5.10;99.90
74488;DHT22;63019;51.080;13.642;2023-12-22T00:10:12;5.00;99.90
74488;DHT22;63019;51.080;13.642;2023-12-22T00:11:14;5.00;99.90
74488;DHT22;63019;51.080;13.642;2023-12-22T00:12:17;5.10;99.90
74488;DHT22;63019;51.080;13.642;2023-12-22T00:13:19;5.10;99.90
74488;DHT22;63019;51.080;13.642;2023-12-22T00:14:21;5.00;99.90
74488;DHT22;63019;51.080;13.642;2023-12-22T00:15:23;5.10;99.90
74488;DHT22;63019;51.080;13.642;2023-12-22T00:16:25;5.10;99.90
74488;DHT22;63019;51.080;13.642;2023-12-22T00:17:27;5.10;99.90
74488;DHT22;63019;51.080;13.642;2023-12-22T00:18:29;5.10;99.90
74488;DHT22;63019;51.080;13.642;2023-12-22T00:19:31;5.10;99.90
74488;DHT22;63019;51.080;13.642;2023-12-22T00:20:33;5.10;99.90
74488;DHT22;63019;51.080;13.642;2023-12-22T00:21:35;5.10;99.90
74488;DHT22;63019;51.080;13.642;2023-12-22T00:22:36;5.00;99.90
74488;DHT22;63019;51.080;13.642;2023-12-22T00:23:38;5.00;99.90
74488;DHT22;63019;51.080;13.642;2023-12-22T00:24:40;5.00;99.90
74488;DHT22;63019;51.080;13.642;2023-12-22T00:25:42;5.00;99.90
74488;DHT22;63019;51.080;13.642;2023-12-22T00:26:44;5.10;99.90
74488;DHT22;63019;51.080;13.642;2023-12-22T00:27:46;5.00;99.90
74488;DHT22;63019;51.080;13.642;2023-12-22T00:28:49;5.00;99.90
74488;DHT22;63019;51.080;13.642;2023-12-22T00:29:51;5.00;99.90
74488;DHT22;63019;51.080;13.642;2023-12-22T00:30:53;5.00;99.90
74488;DHT22;63019;51.080;13.642;2023-12-22T00:31:55;5.00;99.90
74488;DHT22;63019;51.080;13.642;2023-12-22T00:32:57;5.00;99.90
74488;DHT22;63019;51.080;13.642;2023-12-22T00:33:59;5.00;99.90
74488;DHT22;63019;51.080;13.642;2023-12-22T00:35:02;5.00;99.90
74488;DHT22;63019;51.080;13.642;2023-12-22T00:36:06;5.00;99.90
74488;DHT22;63019;51.080;13.642;2023-12-22T00:37:09;5.00;99.90
74488;DHT22;63019;51.080;13.642;2023-12-22T00:38:11;5.00;99.90
74488;DHT22;63019;51.080;13.642;2023-12-22T00:39:13;5.00;99.90
74488;DHT22;63019;51.080;13.642;2023-12-22T00:40:16;5.00;99.90
74488;DHT22;63019;51.080;13.642;2023-12-22T00:41:18;5.00;99.90
74488;DHT22;63019;51.080;13.642;2023-12-22T00:42:20;5.00;99.90
74488;DHT22;63019;51.080;13.642;2023-12-22T00:43:21;5.00;99.90
74488;DHT22;63019;51.080;13.642;2023-12-22T00:44:23;5.00;99.90
74488;DHT22;63019;51.080;13.642;2023-12-22T00:45:29;5.00;99.90
74488;DHT22;63019;51.080;13.642;2023-12-22T00:46:31;5.00;99.90
74488;DHT22;63019;51.080;13.642;2023-12-22T00:47:33;5.00;99.90
74488;DHT22;63019;51.080;13.642;2023-12-22T00:48:37;5.00;99.90
74488;DHT22;63019;51.080;13.642;2023-12-22T00:49:39;5.00;99.90
74488;DHT22;63019;51.080;13.642;2023-12-22T00:50:41;5.00;99.90
74488;DHT22;63019;51.080;13.642;2023-12-22T00:51:43;5.10;99.90
74488;DHT22;63019;51.080;13.642;2023-12-22T00:52:45;5.10;99.90
74488;DHT22;63019;51.080;13.642;2023-12-22T00:53:47;5.10;99.90
74488;DHT22;63019;51.080;13.642;2023-12-22T00:54:49;5.10;99.90
74488;DHT22;63019;51.080;13.642;2023-12-22T00:55:51;5.10;99.90
74488;DHT22;63019;51.080;13.642;2023-12-22T00:56:53;5.20;99.90
74488;DHT22;63019;51.080;13.642;2023-12-22T00:57:55;5.20;99.90
74488;DHT22;63019;51.080;13.642;2023-12-22T00:58:57;5.10;99.90
74488;DHT22;63019;51.080;13.642;2023-12-22T01:00:12;5.20;99.90
74488;DHT22;63019;51.080;13.642;2023-12-22T01:01:14;5.10;99.90
74488;DHT22;63019;51.080;13.642;2023-12-22T01:02:17;5.20;99.90
74488;DHT22;63019;51.080;13.642;2023-12-22T01:03:19;5.20;99.90
74488;DHT22;63019;51.080;13.642;2023-12-22T01:04:22;5.20;99.90
74488;DHT22;63019;51.080;13.642;2023-12-22T01:05:24;5.20;99.90
74488;DHT22;63019;51.080;13.642;2023-12-22T01:06:26;5.20;99.90
74488;DHT22;63019;51.080;13.642;2023-12-22T01:07:32;5.20;99.90
74488;DHT22;63019;51.080;13.642;2023-12-22T01:08:36;5.20;99.90
74488;DHT22;63019;51.080;13.642;2023-12-22T01:09:39;5.20;99.90
74488;DHT22;63019;51.080;13.642;2023-12-22T01:10:40;5.20;99.90
74488;DHT22;63019;51.080;13.642;2023-12-22T01:11:42;5.20;99.90
74488;DHT22;63019;51.080;13.642;2023-12-22T01:12:44;5.20;99.90
74488;DHT22;63019;51.080;13.642;2023-12-22T01:13:46;5.20;99.90
74488;DHT22;63019;51.080;13.642;2023-12-22T01:14:48;5.20;99.90
74488;DHT22;63019;51.080;13.642;2023-12-22T01:15:53;5.20;99.90
74488;DHT22;63019;51.080;13.642;2023-12-22T01:16:55;5.20;99.90
74488;DHT22;63019;51.080;13.642;2023-12-22T01:17:57;5.20;99.90
74488;DHT22;63019;51.080;13.642;2023-12-22T01:18:59;5.20;99.90
74488;DHT22;63019;51.080;13.642;2023-12-22T01:20:01;5.20;99.90
74488;DHT22;63019;51.080;13.642;2023-12-22T01:21:03;5.20;99.90
74488;DHT22;63019;51.080;13.642;2023-12-22T01:22:05;5.20;99.90
74488;DHT22;63019;51.080;13.642;2023-12-22T01:23:06;5.20;99.90
74488;DHT22;63019;51.080;13.642;2023-12-22T01:24:08;5.20;99.90
74488;DHT22;63019;51.080;13.642;2023-12-22T01:25:10;5.20;99.90
74488;DHT22;63019;51.080;13.642;2023-12-22T01:26:12;5.20;99.90
74488;DHT22;63019;51.080;13.642;2023-12-22T01:27:13;5.20;99.90
74488;DHT22;63019;51.080;13.642;2023-12-22T01:28:15;5.20;99.90
74488;DHT22;63019;51.080;13.642;2023-12-22T01:29:17;5.20;99.90
74488;DHT22;63019;51.080;13.642;2023-12-22T01:30:19;5.20;99.90
74488;DHT22;63019;51.080;13.642;2023-12-22T01:31:21;5.20;99.90
74488;DHT22;63019;51.080;13.642;2023-12-22T01:32:22;5.20;99.90
74488;DHT22;63019;51.080;13.642;2023-12-22T01:33:24;5.20;99.90
74488;DHT22;63019;51.080;13.642;2023-12-22T01:34:26;5.20;99.90
74488;DHT22;63019;51.080;13.642;2023-12-22T01:35:28;5.20;99.90
74488;DHT22;63019;51.080;13.642;2023-12-22T01:36:30;5.20;99.90
74488;DHT22;63019;51.080;13.642;2023-12-22T01:37:32;5.20;99.90
74488;DHT22;63019;51.080;13.642;2023-12-22T01:38:33;5.20;99.90
74488;DHT22;63019;51.080;13.642;2023-12-22T01:39:35;5.20;99.90
74488;DHT22;63019;51.080;13.642;2023-12-22T01:40:38;5.20;99.90
74488;DHT22;63019;51.080;13.642;2023-12-22T01:41:40;5.20;99.90
74488;DHT22;63019;51.080;13.642;2023-12-22T01:42:42;5.20;99.90
74488;DHT22;63019;51.080;13.642;2023-12-22T01:43:43;5.20;99.90
74488;DHT22;63019;51.080;13.642;2023-12-22T01:44:45;5.20;99.90
74488;DHT22;63019;51.080;13.642;2023-12-22T01:45:54;5.20;99.90
74488;DHT22;63019;51.080;13.642;2023-12-22T01:46:56;5.20;99.90
74488;DHT22;63019;51.080;13.642;2023-12-22T01:47:59;5.20;99.90
74488;DHT22;63019;51.080;13.642;2023-12-22T01:49:02;5.10;99.90
74488;DHT22;63019;51.080;13.642;2023-12-22T01:50:05;5.10;99.90
74488;DHT22;63019;51.080;13.642;2023-12-22T01:51:07;5.10;99.90
74488;DHT22;63019;51.080;13.642;2023-12-22T01:52:09;5.10;99.90
74488;DHT22;63019;51.080;13.642;2023-12-22T01:53:12;5.10;99.90
74488;DHT22;63019;51.080;13.642;2023-12-22T01:54:14;5.10;99.90
74488;DHT22;63019;51.080;13.642;2023-12-22T01:55:17;5.10;99.90
74488;DHT22;63019;51.080;13.642;2023-12-22T01:56:20;5.10;99.90
74488;DHT22;63019;51.080;13.642;2023-12-22T01:57:22;5.10;99.90
74488;DHT22;63019;51.080;13.642;2023-12-22T01:58:24;5.10;99.90
74488;DHT22;63019;51.080;13.642;2023-12-22T01:59:26;5.00;99.90
74488;DHT22;63019;51.080;13.642;2023-12-22T02:00:28;5.00;99.90
74488;DHT22;63019;51.080;13.642;2023-12-22T02:01:30;5.00;99.90
74488;DHT22;63019;51.080;13.642;2023-12-22T02:02:33;5.00;99.90
74488;DHT22;63019;51.080;13.642;2023-12-22T02:03:35;4.90;99.90
74488;DHT22;63019;51.080;13.642;2023-12-22T02:04:39;5.00;99.90
74488;DHT22;63019;51.080;13.642;2023-12-22T02:05:43;4.90;99.90
74488;DHT22;63019;51.080;13.642;2023-12-22T02:06:45;4.80;99.90
74488;DHT22;63019;51.080;13.642;2023-12-22T02:07:47;4.80;99.90
74488;DHT22;63019;51.080;13.642;2023-12-22T02:08:50;4.70;99.90
74488;DHT22;63019;51.080;13.642;2023-12-22T02:09:52;4.70;99.90
74488;DHT22;63019;51.080;13.642;2023-12-22T02:10:54;4.60;99.90
74488;DHT22;63019;51.080;13.642;2023-12-22T02:11:56;4.60;99.90
74488;DHT22;63019;51.080;13.642;2023-12-22T02:12:58;4.60;99.90
74488;DHT22;63019;51.080;13.642;2023-12-22T02:14:00;4.60;99.90
74488;DHT22;63019;51.080;13.642;2023-12-22T02:15:03;4.60;99.90
74488;DHT22;63019;51.080;13.642;2023-12-22T02:16:19;4.60;99.90
74488;DHT22;63019;51.080;13.642;2023-12-22T02:17:31;4.50;99.90
74488;DHT22;63019;51.080;13.642;2023-12-22T02:18:38;4.50;99.90
74488;DHT22;63019;51.080;13.642;2023-12-22T02:19:42;4.50;99.90
74488;DHT22;63019;51.080;13.642;2023-12-22T02:20:45;4.50;99.90
74488;DHT22;63019;51.080;13.642;2023-12-22T02:22:02;4.50;99.90
74488;DHT22;63019;51.080;13.642;2023-12-22T02:23:10;4.40;99.90
74488;DHT22;63019;51.080;13.642;2023-12-22T02:24:12;4.40;99.90
74488;DHT22;63019;51.080;13.642;2023-12-22T02:25:13;4.40;99.90
74488;DHT22;63019;51.080;13.642;2023-12-22T02:26:36;4.40;99.90
74488;DHT22;63019;51.080;13.642;2023-12-22T02:30:24;4.40;99.90
74488;DHT22;63019;51.080;13.642;2023-12-22T02:31:39;4.40;99.90
74488;DHT22;63019;51.080;13.642;2023-12-22T02:32:48;4.40;99.90
74488;DHT22;63019;51.080;13.642;2023-12-22T02:33:52;4.40;99.90
74488;DHT22;63019;51.080;13.642;2023-12-22T02:34:56;4.40;99.90
74488;DHT22;63019;51.080;13.642;2023-12-22T02:36:03;4.40;99.90
74488;DHT22;63019;51.080;13.642;2023-12-22T02:37:07;4.30;99.90
74488;DHT22;63019;51.080;13.642;2023-12-22T02:38:11;4.30;99.90
74488;DHT22;63019;51.080;13.642;2023-12-22T02:39:14;4.30;99.90
74488;DHT22;63019;51.080;13.642;2023-12-22T02:40:19;4.30;99.90
74488;DHT22;63019;51.080;13.642;2023-12-22T02:41:21;4.30;99.90
74488;DHT22;63019;51.080;13.642;2023-12-22T02:42:23;4.30;99.90
74488;DHT22;63019;51.080;13.642;2023-12-22T02:43:31;4.30;99.90
74488;DHT22;63019;51.080;13.642;2023-12-22T02:44:33;4.30;99.90
74488;DHT22;63019;51.080;13.642;2023-12-22T02:45:35;4.30;99.90
74488;DHT22;63019;51.080;13.642;2023-12-22T02:46:37;4.30;99.90
74488;DHT22;63019;51.080;13.642;2023-12-22T02:47:39;4.30;99.90
74488;DHT22;63019;51.080;13.642;2023-12-22T02:48:41;4.30;99.90
74488;DHT22;63019;51.080;13.642;2023-12-22T02:49:43;4.30;99.90
74488;DHT22;63019;51.080;13.642;2023-12-22T02:50:45;4.30;99.90
74488;DHT22;63019;51.080;13.642;2023-12-22T02:51:46;4.30;99.90
74488;DHT22;63019;51.080;13.642;2023-12-22T02:52:48;4.30;99.90
74488;DHT22;63019;51.080;13.642;2023-12-22T02:53:50;4.30;99.90
74488;DHT22;63019;51.080;13.642;2023-12-22T02:54:53;4.30;99.90
74488;DHT22;63019;51.080;13.642;2023-12-22T02:55:54;4.30;99.90
74488;DHT22;63019;51.080;13.642;2023-12-22T02:56:56;4.40;99.90
74488;DHT22;63019;51.080;13.642;2023-12-22T02:57:58;4.40;99.90
74488;DHT22;63019;51.080;13.642;2023-12-22T02:59:00;4.40;99.90
74488;DHT22;63019;51.080;13.642;2023-12-22T03:00:02;4.40;99.90
74488;DHT22;63019;51.080;13.642;2023-12-22T03:01:05;4.40;99.90
74488;DHT22;63019;51.080;13.642;2023-12-22T03:02:07;4.40;99.90
74488;DHT22;63019;51.080;13.642;2023-12-22T03:03:08;4.40;99.90
74488;DHT22;63019;51.080;13.642;2023-12-22T03:04:10;4.50;99.90
74488;DHT22;63019;51.080;13.642;2023-12-22T03:05:12;4.50;99.90
74488;DHT22;63019;51.080;13.642;2023-12-22T03:06:14;4.50;99.90
74488;DHT22;63019;51.080;13.642;2023-12-22T03:07:16;4.50;99.90
74488;DHT22;63019;51.080;13.642;2023-12-22T03:08:18;4.50;99.90
74488;DHT22;63019;51.080;13.642;2023-12-22T03:09:20;4.50;99.90
74488;DHT22;63019;51.080;13.642;2023-12-22T03:10:23;4.50;99.90
74488;DHT22;63019;51.080;13.642;2023-12-22T03:11:25;4.50;99.90
74488;DHT22;63019;51.080;13.642;2023-12-22T03:12:26;4.50;99.90
74488;DHT22;63019;51.080;13.642;2023-12-22T03:13:28;4.50;99.90
74488;DHT22;63019;51.080;13.642;2023-12-22T03:14:31;4.40;99.90
74488;DHT22;63019;51.080;13.642;2023-12-22T03:15:34;4.50;99.90
74488;DHT22;63019;51.080;13.642;2023-12-22T03:16:36;4.50;99.90
74488;DHT22;63019;51.080;13.642;2023-12-22T03:17:41;4.50;99.90
74488;DHT22;63019;51.080;13.642;2023-12-22T03:18:43;4.50;99.90
74488;DHT22;63019;51.080;13.642;2023-12-22T03:19:44;4.50;99.90
74488;DHT22;63019;51.080;13.642;2023-12-22T03:20:46;4.60;99.90
74488;DHT22;63019;51.080;13.642;2023-12-22T03:21:48;4.60;99.90
74488;DHT22;63019;51.080;13.642;2023-12-22T03:22:50;4.60;99.90
74488;DHT22;63019;51.080;13.642;2023-12-22T03:23:52;4.60;99.90
74488;DHT22;63019;51.080;13.642;2023-12-22T03:24:53;4.60;99.90
74488;DHT22;63019;51.080;13.642;2023-12-22T03:25:55;4.60;99.90
74488;DHT22;63019;51.080;13.642;2023-12-22T03:26:57;4.60;99.90
74488;DHT22;63019;51.080;13.642;2023-12-22T03:27:59;4.60;99.90
74488;DHT22;63019;51.080;13.642;2023-12-22T03:29:01;4.60;99.90
74488;DHT22;63019;51.080;13.642;2023-12-22T03:30:03;4.60;99.90
74488;DHT22;63019;51.080;13.642;2023-12-22T03:31:06;4.60;99.90
74488;DHT22;63019;51.080;13.642;2023-12-22T03:32:09;4.60;99.90
74488;DHT22;63019;51.080;13.642;2023-12-22T03:33:11;4.60;99.90
74488;DHT22;63019;51.080;13.642;2023-12-22T03:34:13;4.60;99.90
74488;DHT22;63019;51.080;13.642;2023-12-22T03:35:15;4.60;99.90
74488;DHT22;63019;51.080;13.642;2023-12-22T03:36:17;4.60;99.90
74488;DHT22;63019;51.080;13.642;2023-12-22T03:37:19;4.70;99.90
74488;DHT22;63019;51.080;13.642;2023-12-22T03:38:20;4.70;99.90
74488;DHT22;63019;51.080;13.642;2023-12-22T03:39:22;4.70;99.90
74488;DHT22;63019;51.080;13.642;2023-12-22T03:40:24;4.60;99.90
74488;DHT22;63019;51.080;13.642;2023-12-22T03:41:26;4.70;99.90
74488;DHT22;63019;51.080;13.642;2023-12-22T03:42:28;4.70;99.90
74488;DHT22;63019;51.080;13.642;2023-12-22T03:43:29;4.60;99.90
74488;DHT22;63019;51.080;13.642;2023-12-22T03:44:33;4.70;99.90
74488;DHT22;63019;51.080;13.642;2023-12-22T03:45:35;4.70;99.90
74488;DHT22;63019;51.080;13.642;2023-12-22T03:46:37;4.70;99.90
74488;DHT22;63019;51.080;13.642;2023-12-22T03:47:39;4.70;99.90
74488;DHT22;63019;51.080;13.642;2023-12-22T03:48:41;4.80;99.90
74488;DHT22;63019;51.080;13.642;2023-12-22T03:49:43;4.80;99.90
74488;DHT22;63019;51.080;13.642;2023-12-22T03:50:44;4.80;99.90
74488;DHT22;63019;51.080;13.642;2023-12-22T03:51:46;4.80;99.90
74488;DHT22;63019;51.080;13.642;2023-12-22T03:52:48;4.80;99.90
74488;DHT22;63019;51.080;13.642;2023-12-22T03:53:50;4.80;99.90
74488;DHT22;63019;51.080;13.642;2023-12-22T03:54:51;4.80;99.90
74488;DHT22;63019;51.080;13.642;2023-12-22T03:55:53;4.80;99.90
74488;DHT22;63019;51.080;13.642;2023-12-22T03:56:56;4.90;99.90
74488;DHT22;63019;51.080;13.642;2023-12-22T03:57:58;4.90;99.90
74488;DHT22;63019;51.080;13.642;2023-12-22T03:58:59;4.90;99.90
74488;DHT22;63019;51.080;13.642;2023-12-22T04:00:02;4.90;99.90
74488;DHT22;63019;51.080;13.642;2023-12-22T04:01:04;4.90;99.90
74488;DHT22;63019;51.080;13.642;2023-12-22T04:02:06;4.90;99.90
74488;DHT22;63019;51.080;13.642;2023-12-22T04:03:08;4.90;99.90
74488;DHT22;63019;51.080;13.642;2023-12-22T04:04:09;4.90;99.90
74488;DHT22;63019;51.080;13.642;2023-12-22T04:05:11;4.90;99.90
74488;DHT22;63019;51.080;13.642;2023-12-22T04:06:13;4.90;99.90
74488;DHT22;63019;51.080;13.642;2023-12-22T04:07:15;4.90;99.90
74488;DHT22;63019;51.080;13.642;2023-12-22T04:08:17;4.90;99.90
74488;DHT22;63019;51.080;13.642;2023-12-22T04:09:19;4.90;99.90
74488;DHT22;63019;51.080;13.642;2023-12-22T04:10:21;4.90;99.90
74488;DHT22;63019;51.080;13.642;2023-12-22T04:11:23;4.90;99.90
74488;DHT22;63019;51.080;13.642;2023-12-22T04:12:24;4.90;99.90
74488;DHT22;63019;51.080;13.642;2023-12-22T04:13:26;4.90;99.90
74488;DHT22;63019;51.080;13.642;2023-12-22T04:14:28;4.90;99.90
74488;DHT22;63019;51.080;13.642;2023-12-22T04:15:30;4.90;99.90
74488;DHT22;63019;51.080;13.642;2023-12-22T04:16:32;4.90;99.90
74488;DHT22;63019;51.080;13.642;2023-12-22T04:17:34;4.90;99.90
74488;DHT22;63019;51.080;13.642;2023-12-22T04:18:36;4.90;99.90
74488;DHT22;63019;51.080;13.642;2023-12-22T04:19:38;4.90;99.90
74488;DHT22;63019;51.080;13.642;2023-12-22T04:20:40;4.90;99.90
74488;DHT22;63019;51.080;13.642;2023-12-22T04:21:42;4.80;99.90
74488;DHT22;63019;51.080;13.642;2023-12-22T04:22:44;4.90;99.90
74488;DHT22;63019;51.080;13.642;2023-12-22T04:23:45;4.90;99.90
74488;DHT22;63019;51.080;13.642;2023-12-22T04:24:47;4.80;99.90
74488;DHT22;63019;51.080;13.642;2023-12-22T04:25:49;4.80;99.90
74488;DHT22;63019;51.080;13.642;2023-12-22T04:26:51;4.80;99.90
74488;DHT22;63019;51.080;13.642;2023-12-22T04:27:53;4.80;99.90
74488;DHT22;63019;51.080;13.642;2023-12-22T04:28:55;4.80;99.90
74488;DHT22;63019;51.080;13.642;2023-12-22T04:29:57;4.80;99.90
74488;DHT22;63019;51.080;13.642;2023-12-22T04:30:58;4.80;99.90
74488;DHT22;63019;51.080;13.642;2023-12-22T04:32:00;4.80;99.90
74488;DHT22;63019;51.080;13.642;2023-12-22T04:33:02;4.80;99.90
74488;DHT22;63019;51.080;13.642;2023-12-22T04:34:04;4.80;99.90
74488;DHT22;63019;51.080;13.642;2023-12-22T04:35:06;4.80;99.90
74488;DHT22;63019;51.080;13.642;2023-12-22T04:36:08;4.80;99.90
74488;DHT22;63019;51.080;13.642;2023-12-22T04:37:10;4.80;99.90
74488;DHT22;63019;51.080;13.642;2023-12-22T04:38:12;4.80;99.90
74488;DHT22;63019;51.080;13.642;2023-12-22T04:39:14;4.70;99.90
74488;DHT22;63019;51.080;13.642;2023-12-22T04:40:16;4.70;99.90
74488;DHT22;63019;51.080;13.642;2023-12-22T04:41:18;4.70;99.90
74488;DHT22;63019;51.080;13.642;2023-12-22T04:42:19;4.70;99.90
74488;DHT22;63019;51.080;13.642;2023-12-22T04:43:21;4.70;99.90
74488;DHT22;63019;51.080;13.642;2023-12-22T04:44:23;4.70;99.90
74488;DHT22;63019;51.080;13.642;2023-12-22T04:45:25;4.60;99.90
74488;DHT22;63019;51.080;13.642;2023-12-22T04:46:27;4.60;99.90
74488;DHT22;63019;51.080;13.642;2023-12-22T04:47:29;4.60;99.90
74488;DHT22;63019;51.080;13.642;2023-12-22T04:48:31;4.60;99.90
74488;DHT22;63019;51.080;13.642;2023-12-22T04:49:35;4.60;99.90
74488;DHT22;63019;51.080;13.642;2023-12-22T04:50:36;4.60;99.90
74488;DHT22;63019;51.080;13.642;2023-12-22T04:51:38;4.60;99.90
74488;DHT22;63019;51.080;13.642;2023-12-22T04:52:40;4.60;99.90
74488;DHT22;63019;51.080;13.642;2023-12-22T04:53:42;4.60;99.90
74488;DHT22;63019;51.080;13.642;2023-12-22T04:54:44;4.50;99.90
74488;DHT22;63019;51.080;13.642;2023-12-22T04:55:46;4.60;99.90
74488;DHT22;63019;51.080;13.642;2023-12-22T04:56:47;4.60;99.90
74488;DHT22;63019;51.080;13.642;2023-12-22T04:57:49;4.60;99.90
74488;DHT22;63019;51.080;13.642;2023-12-22T04:58:51;4.60;99.90
74488;DHT22;63019;51.080;13.642;2023-12-22T04:59:53;4.60;99.90
74488;DHT22;63019;51.080;13.642;2023-12-22T05:00:55;4.60;99.90
74488;DHT22;63019;51.080;13.642;2023-12-22T05:01:57;4.60;99.90
74488;DHT22;63019;51.080;13.642;2023-12-22T05:02:59;4.60;99.90
74488;DHT22;63019;51.080;13.642;2023-12-22T05:04:01;4.60;99.90
74488;DHT22;63019;51.080;13.642;2023-12-22T05:05:10;4.60;99.90
74488;DHT22;63019;51.080;13.642;2023-12-22T05:06:13;4.60;99.90
74488;DHT22;63019;51.080;13.642;2023-12-22T05:07:15;4.60;99.90
74488;DHT22;63019;51.080;13.642;2023-12-22T05:08:17;4.60;99.90
74488;DHT22;63019;51.080;13.642;2023-12-22T05:09:18;4.60;99.90
74488;DHT22;63019;51.080;13.642;2023-12-22T05:10:20;4.60;99.90
74488;DHT22;63019;51.080;13.642;2023-12-22T05:11:22;4.60;99.90
74488;DHT22;63019;51.080;13.642;2023-12-22T05:12:24;4.60;99.90
74488;DHT22;63019;51.080;13.642;2023-12-22T05:13:26;4.60;99.90
74488;DHT22;63019;51.080;13.642;2023-12-22T05:14:28;4.60;99.90
74488;DHT22;63019;51.080;13.642;2023-12-22T05:15:30;4.60;99.90
74488;DHT22;63019;51.080;13.642;2023-12-22T05:16:32;4.60;99.90
74488;DHT22;63019;51.080;13.642;2023-12-22T05:17:34;4.50;99.90
74488;DHT22;63019;51.080;13.642;2023-12-22T05:18:35;4.50;99.90
74488;DHT22;63019;51.080;13.642;2023-12-22T05:19:37;4.50;99.90
74488;DHT22;63019;51.080;13.642;2023-12-22T05:20:39;4.40;99.90
74488;DHT22;63019;51.080;13.642;2023-12-22T05:21:41;4.40;99.90
74488;DHT22;63019;51.080;13.642;2023-12-22T05:22:43;4.40;99.90
74488;DHT22;63019;51.080;13.642;2023-12-22T05:23:45;4.40;99.90
74488;DHT22;63019;51.080;13.642;2023-12-22T05:24:47;4.40;99.90
74488;DHT22;63019;51.080;13.642;2023-12-22T05:25:49;4.30;99.90
74488;DHT22;63019;51.080;13.642;2023-12-22T05:26:52;4.30;99.90
74488;DHT22;63019;51.080;13.642;2023-12-22T05:27:54;4.30;99.90
74488;DHT22;63019;51.080;13.642;2023-12-22T05:28:56;4.30;99.90
74488;DHT22;63019;51.080;13.642;2023-12-22T05:29:59;4.20;99.90
74488;DHT22;63019;51.080;13.642;2023-12-22T05:31:08;4.20;99.90
74488;DHT22;63019;51.080;13.642;2023-12-22T05:32:10;4.20;99.90
74488;DHT22;63019;51.080;13.642;2023-12-22T05:33:11;4.20;99.90
74488;DHT22;63019;51.080;13.642;2023-12-22T05:34:13;4.10;99.90
74488;DHT22;63019;51.080;13.642;2023-12-22T05:35:17;4.10;99.90
74488;DHT22;63019;51.080;13.642;2023-12-22T05:36:20;4.10;99.90
74488;DHT22;63019;51.080;13.642;2023-12-22T05:37:22;4.10;99.90
74488;DHT22;63019;51.080;13.642;2023-12-22T05:38:24;4.10;99.90
74488;DHT22;63019;51.080;13.642;2023-12-22T05:39:26;4.10;99.90
74488;DHT22;63019;51.080;13.642;2023-12-22T05:40:27;4.10;99.90
74488;DHT22;63019;51.080;13.642;2023-12-22T05:41:29;4.00;99.90
74488;DHT22;63019;51.080;13.642;2023-12-22T05:42:31;4.00;99.90
74488;DHT22;63019;51.080;13.642;2023-12-22T05:43:33;4.00;99.90
74488;DHT22;63019;51.080;13.642;2023-12-22T05:44:35;4.00;99.90
74488;DHT22;63019;51.080;13.642;2023-12-22T05:45:37;4.00;99.90
74488;DHT22;63019;51.080;13.642;2023-12-22T05:46:39;4.00;99.90
74488;DHT22;63019;51.080;13.642;2023-12-22T05:47:42;4.00;99.90
74488;DHT22;63019;51.080;13.642;2023-12-22T05:48:44;4.00;99.90
74488;DHT22;63019;51.080;13.642;2023-12-22T05:49:46;4.00;99.90
74488;DHT22;63019;51.080;13.642;2023-12-22T05:50:48;4.00;99.90
74488;DHT22;63019;51.080;13.642;2023-12-22T05:51:50;4.00;99.90
74488;DHT22;63019;51.080;13.642;2023-12-22T05:52:52;4.00;99.90
74488;DHT22;63019;51.080;13.642;2023-12-22T05:53:54;4.00;99.90
74488;DHT22;63019;51.080;13.642;2023-12-22T05:54:55;4.00;99.90
74488;DHT22;63019;51.080;13.642;2023-12-22T05:55:57;4.00;99.90
74488;DHT22;63019;51.080;13.642;2023-12-22T05:56:59;4.00;99.90
74488;DHT22;63019;51.080;13.642;2023-12-22T05:58:01;4.00;99.90
74488;DHT22;63019;51.080;13.642;2023-12-22T05:59:03;4.00;99.90
74488;DHT22;63019;51.080;13.642;2023-12-22T06:00:05;4.00;99.90
74488;DHT22;63019;51.080;13.642;2023-12-22T06:01:14;4.00;99.90
74488;DHT22;63019;51.080;13.642;2023-12-22T06:02:16;4.00;99.90
74488;DHT22;63019;51.080;13.642;2023-12-22T06:03:18;4.00;99.90
74488;DHT22;63019;51.080;13.642;2023-12-22T06:04:20;4.00;99.90
74488;DHT22;63019;51.080;13.642;2023-12-22T06:05:22;4.00;99.90
74488;DHT22;63019;51.080;13.642;2023-12-22T06:06:24;4.00;99.90
74488;DHT22;63019;51.080;13.642;2023-12-22T06:07:26;4.00;99.90
74488;DHT22;63019;51.080;13.642;2023-12-22T06:08:28;4.10;99.90
74488;DHT22;63019;51.080;13.642;2023-12-22T06:09:30;4.00;99.90
74488;DHT22;63019;51.080;13.642;2023-12-22T06:10:32;4.10;99.90
74488;DHT22;63019;51.080;13.642;2023-12-22T06:11:34;4.10;99.90
74488;DHT22;63019;51.080;13.642;2023-12-22T06:12:36;4.10;99.90
74488;DHT22;63019;51.080;13.642;2023-12-22T06:13:38;4.10;99.90
74488;DHT22;63019;51.080;13.642;2023-12-22T06:14:40;4.10;99.90
74488;DHT22;63019;51.080;13.642;2023-12-22T06:15:42;4.10;99.90
74488;DHT22;63019;51.080;13.642;2023-12-22T06:16:44;4.10;99.90
74488;DHT22;63019;51.080;13.642;2023-12-22T06:17:46;4.10;99.90
74488;DHT22;63019;51.080;13.642;2023-12-22T06:18:48;4.10;99.90
74488;DHT22;63019;51.080;13.642;2023-12-22T06:19:50;4.10;99.90
74488;DHT22;63019;51.080;13.642;2023-12-22T06:20:52;4.10;99.90
74488;DHT22;63019;51.080;13.642;2023-12-22T06:21:54;4.10;99.90
74488;DHT22;63019;51.080;13.642;2023-12-22T06:22:56;4.10;99.90
74488;DHT22;63019;51.080;13.642;2023-12-22T06:23:58;4.10;99.90
74488;DHT22;63019;51.080;13.642;2023-12-22T06:24:59;4.10;99.90
74488;DHT22;63019;51.080;13.642;2023-12-22T06:26:02;4.00;99.90
74488;DHT22;63019;51.080;13.642;2023-12-22T06:27:09;4.00;99.90
74488;DHT22;63019;51.080;13.642;2023-12-22T06:28:10;4.00;99.90
74488;DHT22;63019;51.080;13.642;2023-12-22T06:29:12;4.00;99.90
74488;DHT22;63019;51.080;13.642;2023-12-22T06:30:14;4.00;99.90
74488;DHT22;63019;51.080;13.642;2023-12-22T06:31:20;4.00;99.90
74488;DHT22;63019;51.080;13.642;2023-12-22T06:32:22;4.00;99.90
74488;DHT22;63019;51.080;13.642;2023-12-22T06:33:24;4.00;99.90
74488;DHT22;63019;51.080;13.642;2023-12-22T06:34:26;4.00;99.90
74488;DHT22;63019;51.080;13.642;2023-12-22T06:35:28;4.00;99.90
74488;DHT22;63019;51.080;13.642;2023-12-22T06:36:30;4.00;99.90
74488;DHT22;63019;51.080;13.642;2023-12-22T06:37:32;4.00;99.90